createdAt,value
2024-04-03T00:13:53.185Z,9.50
2024-04-03T00:48:53.199Z,11.10
2024-04-03T01:28:53.212Z,7.30
2024-04-03T01:43:53.205Z,4.30
2024-04-03T01:48:53.203Z,4.30
2024-04-03T01:58:53.254Z,7.30
2024-04-03T03:03:53.237Z,6.10
2024-04-03T03:08:53.242Z,6.10
2024-04-03T03:33:53.237Z,5.30
2024-04-03T03:43:53.249Z,5.80
2024-04-03T03:48:53.266Z,5.80
2024-04-03T04:38:53.279Z,5.30
2024-04-03T04:53:53.272Z,3.10
2024-04-03T05:08:53.288Z,4.80
2024-04-03T05:23:53.282Z,6.00
2024-04-03T05:53:53.288Z,5.50
2024-04-03T05:58:53.301Z,5.60
2024-04-03T06:03:53.305Z,5.60
2024-04-03T06:08:53.296Z,5.60
2024-04-03T06:13:53.505Z,5.40
2024-04-03T06:18:53.311Z,5.40
2024-04-03T06:33:53.308Z,5.90
2024-04-03T06:38:53.301Z,5.90
2024-04-03T06:43:53.305Z,7.20
2024-04-03T06:48:53.314Z,7.20
2024-04-03T06:53:53.316Z,7.20
2024-04-03T07:03:53.311Z,7.80
2024-04-03T07:08:53.327Z,7.80
2024-04-03T07:14:00.394Z,5.00
2024-04-03T07:18:53.311Z,5.00
2024-04-03T07:23:53.322Z,5.00
2024-04-03T07:28:53.315Z,7.20
2024-04-03T07:33:53.315Z,7.20
2024-04-03T07:38:53.323Z,7.20
2024-04-03T07:48:53.322Z,6.20
2024-04-03T07:53:53.324Z,6.20
2024-04-03T07:58:53.336Z,5.10
2024-04-03T08:03:53.422Z,5.10
2024-04-03T08:08:53.344Z,5.10
2024-04-03T08:13:53.335Z,6.80
2024-04-03T08:18:53.336Z,6.80
2024-04-03T08:23:53.334Z,6.80
2024-04-03T08:28:53.338Z,5.60
2024-04-03T08:33:57.209Z,5.60
2024-04-03T08:38:53.359Z,5.60
2024-04-03T08:43:53.340Z,5.50
2024-04-03T08:48:53.351Z,5.50
2024-04-03T08:53:53.350Z,5.50
2024-04-03T08:58:53.344Z,6.60
2024-04-03T09:08:53.354Z,6.60
2024-04-03T09:13:53.359Z,4.70
2024-04-03T09:18:53.358Z,4.70
2024-04-03T09:23:53.358Z,4.70
2024-04-03T09:28:53.356Z,6.90
2024-04-03T09:33:53.367Z,6.90
2024-04-03T09:38:53.369Z,6.90
2024-04-03T09:43:53.377Z,4.80
2024-04-03T09:48:53.365Z,4.80
2024-04-03T09:53:53.361Z,4.80
2024-04-03T09:58:53.370Z,5.60
2024-04-03T10:03:53.367Z,5.60
2024-04-03T10:08:53.366Z,5.60
2024-04-03T10:13:53.710Z,5.70
2024-04-03T10:18:53.379Z,5.70
2024-04-03T10:23:53.378Z,5.70
2024-04-03T10:28:53.371Z,8.00
2024-04-03T10:33:53.389Z,8.00
2024-04-03T10:38:53.384Z,8.00
2024-04-03T10:43:53.388Z,6.80
2024-04-03T10:48:53.398Z,6.80
2024-04-03T10:53:53.402Z,6.80
2024-04-03T11:03:53.480Z,9.20
2024-04-03T11:08:54.626Z,9.20
2024-04-03T11:13:53.387Z,8.20
2024-04-03T11:23:53.385Z,8.20
2024-04-03T11:28:53.380Z,7.70
2024-04-03T11:33:53.381Z,7.70
2024-04-03T11:38:53.391Z,7.70
2024-04-03T11:43:53.401Z,6.00
2024-04-03T11:48:53.400Z,6.00
2024-04-03T11:53:53.408Z,6.00
2024-04-03T12:03:53.405Z,6.40
2024-04-03T12:08:54.080Z,6.40
2024-04-03T12:13:53.405Z,6.00
2024-04-03T12:18:53.414Z,6.00
2024-04-03T12:23:53.428Z,6.00
2024-04-03T12:28:53.425Z,5.40
2024-04-03T12:33:53.417Z,5.40
2024-04-03T12:38:53.477Z,5.40
2024-04-03T12:43:53.423Z,5.70
2024-04-03T12:48:53.414Z,5.70
2024-04-03T12:53:53.445Z,5.70
2024-04-03T12:58:53.430Z,4.80
2024-04-03T13:03:53.428Z,4.80
2024-04-03T13:08:53.429Z,4.80
2024-04-03T13:13:53.447Z,6.90
2024-04-03T13:18:53.443Z,6.90
2024-04-03T13:23:53.439Z,6.90
2024-04-03T13:28:53.432Z,5.00
2024-04-03T13:38:53.442Z,5.00
2024-04-03T13:43:53.442Z,4.20
2024-04-03T13:48:53.447Z,4.20
2024-04-03T13:53:58.589Z,4.20
2024-04-03T13:58:53.460Z,4.40
2024-04-03T14:03:53.469Z,4.40
2024-04-03T14:08:53.455Z,4.40
2024-04-03T14:13:53.506Z,6.20
2024-04-03T14:18:53.464Z,6.20
2024-04-03T14:23:53.463Z,6.20
2024-04-03T14:28:53.454Z,6.90
2024-04-03T14:33:53.455Z,6.90
2024-04-03T14:38:53.471Z,6.90
2024-04-03T14:43:53.458Z,6.80
2024-04-03T14:48:53.535Z,6.80
2024-04-03T14:53:53.488Z,6.80
2024-04-03T14:58:53.478Z,5.40
2024-04-03T15:08:53.477Z,5.40
2024-04-03T15:13:53.481Z,5.50
2024-04-03T15:18:53.487Z,5.50
2024-04-03T15:23:53.466Z,5.50
2024-04-03T15:28:53.475Z,6.10
2024-04-03T15:33:53.479Z,6.10
2024-04-03T15:38:53.500Z,6.10
2024-04-03T15:43:53.484Z,5.60
2024-04-03T15:48:53.500Z,5.60
2024-04-03T15:53:53.503Z,5.60
2024-04-03T15:58:53.489Z,5.10
2024-04-03T16:03:53.555Z,5.10
2024-04-03T16:08:53.488Z,5.10
2024-04-03T16:13:53.517Z,4.70
2024-04-03T16:18:53.515Z,4.70
2024-04-03T16:23:53.496Z,4.70
2024-04-03T16:28:53.506Z,6.20
2024-04-03T16:33:53.503Z,6.20
2024-04-03T16:38:53.498Z,6.20
2024-04-03T16:43:53.520Z,4.90
2024-04-03T16:48:53.510Z,4.90
2024-04-03T16:53:53.518Z,4.90
2024-04-03T16:58:53.509Z,6.40
2024-04-03T17:04:00.482Z,6.40
2024-04-03T17:13:53.535Z,4.90
2024-04-03T17:18:53.523Z,4.90
2024-04-03T17:23:53.525Z,4.90
2024-04-03T17:28:53.527Z,4.90
2024-04-03T17:33:53.520Z,4.90
2024-04-03T17:38:53.525Z,4.90
2024-04-03T17:43:53.532Z,5.20
2024-04-03T17:48:53.538Z,5.20
2024-04-03T17:53:53.541Z,5.20
2024-04-03T17:58:53.536Z,2.80
2024-04-03T18:08:54.805Z,2.80
2024-04-03T18:13:53.543Z,2.70
2024-04-03T18:23:53.560Z,2.70
2024-04-03T18:38:53.542Z,6.30
2024-04-03T18:48:53.544Z,6.30
2024-04-03T18:53:53.558Z,6.30
2024-04-03T18:58:53.560Z,5.10
2024-04-03T19:23:53.568Z,4.60
2024-04-03T19:28:53.560Z,5.10
2024-04-03T19:33:53.559Z,5.10
2024-04-03T19:38:53.577Z,5.10
2024-04-03T19:53:53.567Z,6.40
2024-04-03T19:58:53.593Z,6.20
2024-04-03T20:03:53.573Z,6.20
2024-04-03T20:08:53.584Z,6.20
2024-04-03T20:28:53.590Z,8.90
2024-04-03T20:33:53.593Z,8.90
2024-04-03T20:38:53.588Z,8.90
2024-04-03T20:43:53.589Z,7.00
2024-04-03T20:48:53.654Z,7.00
2024-04-03T20:58:53.598Z,7.60
2024-04-03T21:03:53.634Z,7.60
2024-04-03T21:08:53.600Z,7.60
2024-04-03T21:23:53.605Z,4.90
2024-04-03T21:28:53.594Z,5.70
2024-04-03T21:33:53.601Z,5.70
2024-04-03T21:43:53.655Z,5.40
2024-04-03T21:58:53.594Z,9.50
2024-04-03T22:08:53.622Z,9.50
2024-04-03T22:28:53.623Z,7.80
2024-04-03T22:38:53.616Z,7.80
2024-04-03T22:58:53.629Z,7.50
2024-04-03T23:03:53.656Z,7.50
2024-04-03T23:08:53.641Z,7.50
2024-04-03T23:13:53.645Z,8.40
2024-04-03T23:18:53.638Z,8.40
2024-04-03T23:23:53.637Z,8.40
2024-04-03T23:28:53.644Z,9.30
2024-04-03T23:33:53.660Z,9.30
2024-04-03T23:38:53.642Z,9.30
2024-04-03T23:43:53.647Z,8.30
2024-04-03T23:48:53.751Z,8.30
2024-04-03T23:58:53.648Z,7.30
